TimeCST,TemperatureF,Dew PointF,Humidity,Sea Level PressureIn,VisibilityMPH,Wind Direction,Wind SpeedMPH,Gust SpeedMPH,PrecipitationIn,Events,Conditions,WindDirDegrees,DateUTC
12:15 AM,24.8,19.4,80,29.99,10.0,NNW,9.2,-,N/A,,Clear,330,2011-11-30 06:15:00
12:35 AM,24.8,17.6,74,29.98,10.0,NNW,6.9,-,N/A,,Clear,340,2011-11-30 06:35:00
12:55 AM,24.8,17.6,74,29.98,10.0,NNW,6.9,-,N/A,,Clear,330,2011-11-30 06:55:00
1:15 AM,23.0,19.4,86,29.98,10.0,NNW,6.9,-,N/A,,Clear,330,2011-11-30 07:15:00
1:35 AM,23.0,19.4,86,29.98,10.0,NNW,9.2,-,N/A,,Clear,330,2011-11-30 07:35:00
1:55 AM,23.0,17.6,80,29.98,10.0,NNW,8.1,-,N/A,,Clear,340,2011-11-30 07:55:00
2:35 AM,21.2,17.6,86,29.97,10.0,NNW,6.9,-,N/A,,Clear,330,2011-11-30 08:35:00
3:15 AM,21.2,17.6,86,29.97,10.0,NW,4.6,-,N/A,,Clear,310,2011-11-30 09:15:00
3:35 AM,21.2,17.6,86,29.96,10.0,NW,4.6,-,N/A,,Clear,320,2011-11-30 09:35:00
3:55 AM,21.2,17.6,86,29.96,10.0,Calm,Calm,-,N/A,,Clear,0,2011-11-30 09:55:00
4:15 AM,19.4,17.6,93,29.96,10.0,Calm,Calm,-,N/A,,Clear,0,2011-11-30 10:15:00
4:35 AM,19.4,17.6,93,29.96,10.0,Calm,Calm,-,N/A,,Clear,0,2011-11-30 10:35:00
4:55 AM,19.4,15.8,86,29.96,10.0,NW,3.5,-,N/A,,Clear,310,2011-11-30 10:55:00
5:15 AM,19.4,15.8,86,29.96,10.0,NW,3.5,-,N/A,,Clear,310,2011-11-30 11:15:00
5:35 AM,19.4,14.0,80,29.97,10.0,Calm,Calm,-,N/A,,Clear,0,2011-11-30 11:35:00
6:35 AM,17.6,15.8,93,29.96,10.0,WNW,3.5,-,N/A,,Clear,290,2011-11-30 12:35:00
6:55 AM,19.4,14.0,80,29.96,10.0,WNW,3.5,-,N/A,,Clear,300,2011-11-30 12:55:00
7:15 AM,19.4,14.0,80,29.96,10.0,Calm,Calm,-,N/A,,Clear,0,2011-11-30 13:15:00
7:35 AM,19.4,15.8,86,29.96,10.0,West,3.5,-,N/A,,Clear,270,2011-11-30 13:35:00
7:55 AM,19.4,14.0,80,29.97,10.0,Calm,Calm,-,N/A,,Clear,0,2011-11-30 13:55:00
8:15 AM,21.2,15.8,80,29.96,10.0,West,3.5,-,N/A,,Clear,280,2011-11-30 14:15:00
8:35 AM,23.0,17.6,80,29.96,10.0,West,4.6,-,N/A,,Clear,270,2011-11-30 14:35:00
8:55 AM,24.8,17.6,74,29.96,10.0,West,4.6,-,N/A,,Clear,280,2011-11-30 14:55:00
9:15 AM,26.6,17.6,69,29.96,10.0,WNW,4.6,-,N/A,,Clear,290,2011-11-30 15:15:00
9:35 AM,28.4,15.8,59,29.96,10.0,West,6.9,-,N/A,,Clear,280,2011-11-30 15:35:00
9:55 AM,30.2,17.6,60,29.97,10.0,West,8.1,-,N/A,,Clear,280,2011-11-30 15:55:00
10:15 AM,33.8,15.8,48,29.96,10.0,West,5.8,-,N/A,,Clear,260,2011-11-30 16:15:00
10:35 AM,33.8,15.8,48,29.96,10.0,West,8.1,-,N/A,,Clear,270,2011-11-30 16:35:00
10:55 AM,35.6,15.8,44,29.96,10.0,West,5.8,-,N/A,,Clear,270,2011-11-30 16:55:00
11:15 AM,37.4,15.8,41,29.95,10.0,WSW,8.1,-,N/A,,Clear,240,2011-11-30 17:15:00
11:35 AM,37.4,15.8,41,29.95,10.0,WNW,5.8,-,N/A,,Clear,290,2011-11-30 17:35:00
11:55 AM,39.2,15.8,39,29.94,10.0,West,6.9,-,N/A,,Clear,270,2011-11-30 17:55:00
1:15 PM,42.8,15.8,34,29.93,10.0,WSW,4.6,-,N/A,,Partly Cloudy,240,2011-11-30 19:15:00
1:35 PM,42.8,15.8,34,29.93,10.0,WSW,5.8,-,N/A,,Partly Cloudy,240,2011-11-30 19:35:00
1:55 PM,42.8,17.6,36,29.93,10.0,West,6.9,-,N/A,,Clear,260,2011-11-30 19:55:00
2:15 PM,42.8,17.6,36,29.93,10.0,WSW,8.1,-,N/A,,Scattered Clouds,250,2011-11-30 20:15:00
2:35 PM,42.8,15.8,34,29.93,10.0,WSW,9.2,-,N/A,,Overcast,250,2011-11-30 20:35:00
2:55 PM,42.8,17.6,36,29.94,10.0,SW,5.8,-,N/A,,Overcast,230,2011-11-30 20:55:00
3:15 PM,42.8,15.8,34,29.95,10.0,West,4.6,-,N/A,,Overcast,260,2011-11-30 21:15:00
3:35 PM,41.0,15.8,36,29.96,10.0,West,4.6,-,N/A,,Overcast,260,2011-11-30 21:35:00
3:55 PM,39.2,15.8,39,29.96,10.0,WSW,4.6,-,N/A,,Overcast,240,2011-11-30 21:55:00
4:15 PM,39.2,17.6,42,29.96,10.0,SW,5.8,-,N/A,,Overcast,220,2011-11-30 22:15:00
4:35 PM,39.2,17.6,42,29.97,10.0,WSW,6.9,-,N/A,,Overcast,240,2011-11-30 22:35:00
5:15 PM,37.4,17.6,45,29.97,10.0,SW,6.9,-,N/A,,Overcast,220,2011-11-30 23:15:00
5:35 PM,37.4,19.4,48,29.98,10.0,SW,6.9,-,N/A,,Overcast,230,2011-11-30 23:35:00
5:55 PM,37.4,17.6,45,29.98,10.0,SW,8.1,-,N/A,,Overcast,220,2011-11-30 23:55:00
6:15 PM,37.4,19.4,48,29.98,10.0,SW,6.9,-,N/A,,Overcast,230,2011-12-01 00:15:00
7:35 PM,37.4,19.4,48,30.01,10.0,WSW,3.5,-,N/A,,Overcast,240,2011-12-01 01:35:00
7:55 PM,37.4,19.4,48,30.01,10.0,WSW,4.6,-,N/A,,Overcast,240,2011-12-01 01:55:00
8:15 PM,37.4,19.4,48,30.02,10.0,WSW,3.5,-,N/A,,Overcast,240,2011-12-01 02:15:00
8:35 PM,37.4,21.2,52,30.03,10.0,WSW,3.5,-,N/A,,Overcast,240,2011-12-01 02:35:00
8:55 PM,37.4,19.4,48,30.04,10.0,WNW,3.5,-,N/A,,Overcast,290,2011-12-01 02:55:00
9:15 PM,37.4,19.4,48,30.05,7.0,WNW,11.5,16.1,N/A,,Overcast,300,2011-12-01 03:15:00
9:35 PM,33.8,28.4,81,30.06,2.5,NW,6.9,-,N/A,,Mostly Cloudy,310,2011-12-01 03:35:00
9:55 PM,33.8,30.2,87,30.06,3.0,Calm,Calm,-,N/A,,Mostly Cloudy,0,2011-12-01 03:55:00
10:15 PM,32.0,30.2,93,30.06,5.0,Calm,Calm,-,N/A,,Mostly Cloudy,0,2011-12-01 04:15:00
10:55 PM,32.0,30.2,93,30.08,10.0,Calm,Calm,-,N/A,,Overcast,0,2011-12-01 04:55:00
11:15 PM,32.0,30.2,93,30.08,10.0,Calm,Calm,-,N/A,,Overcast,0,2011-12-01 05:15:00
11:35 PM,32.0,30.2,93,30.08,9.0,Calm,Calm,-,N/A,,Overcast,0,2011-12-01 05:35:00
11:55 PM,32.0,30.2,93,30.08,9.0,Calm,Calm,-,N/A,,Overcast,0,2011-12-01 05:55:00